sensor_id;sensor_type;location;lat;lon;timestamp;pressure;altitude;pressure_sealevel;temperature;humidity
38558;BME280;24333;42.626;23.308;2022-12-10T00:09:57;91651.84;;;8.44;100.00
38558;BME280;24333;42.626;23.308;2022-12-10T00:12:34;91648.44;;;8.50;100.00
38558;BME280;24333;42.626;23.308;2022-12-10T00:15:05;91634.00;;;8.46;100.00
38558;BME280;24333;42.626;23.308;2022-12-10T00:17:31;91619.25;;;8.44;100.00
38558;BME280;24333;42.626;23.308;2022-12-10T00:19:58;91633.38;;;8.60;100.00
38558;BME280;24333;42.626;23.308;2022-12-10T00:22:29;91620.94;;;8.59;100.00
38558;BME280;24333;42.626;23.308;2022-12-10T00:25:01;91625.97;;;8.57;100.00
38558;BME280;24333;42.626;23.308;2022-12-10T00:27:27;91633.44;;;8.67;100.00
38558;BME280;24333;42.626;23.308;2022-12-10T00:50:37;91656.03;;;8.79;100.00
38558;BME280;24333;42.626;23.308;2022-12-10T00:53:04;91645.91;;;8.76;100.00
38558;BME280;24333;42.626;23.308;2022-12-10T00:55:30;91665.34;;;8.78;100.00
38558;BME280;24333;42.626;23.308;2022-12-10T00:57:58;91633.72;;;8.55;100.00
38558;BME280;24333;42.626;23.308;2022-12-10T01:00:24;91639.00;;;8.41;100.00
38558;BME280;24333;42.626;23.308;2022-12-10T01:02:51;91626.19;;;8.37;100.00
38558;BME280;24333;42.626;23.308;2022-12-10T01:05:20;91647.53;;;8.39;100.00
38558;BME280;24333;42.626;23.308;2022-12-10T01:07:46;91647.22;;;8.48;100.00
38558;BME280;24333;42.626;23.308;2022-12-10T01:10:13;91625.34;;;8.30;100.00
38558;BME280;24333;42.626;23.308;2022-12-10T01:12:39;91632.38;;;8.38;100.00
38558;BME280;24333;42.626;23.308;2022-12-10T01:15:06;91646.53;;;8.55;100.00
38558;BME280;24333;42.626;23.308;2022-12-10T01:17:36;91620.41;;;8.99;100.00
38558;BME280;24333;42.626;23.308;2022-12-10T01:20:04;91631.44;;;9.20;100.00
38558;BME280;24333;42.626;23.308;2022-12-10T01:22:31;91630.00;;;9.45;100.00
38558;BME280;24333;42.626;23.308;2022-12-10T01:24:57;91609.78;;;9.46;100.00
38558;BME280;24333;42.626;23.308;2022-12-10T01:27:26;91626.53;;;9.51;100.00
38558;BME280;24333;42.626;23.308;2022-12-10T01:29:55;91645.63;;;9.66;100.00
38558;BME280;24333;42.626;23.308;2022-12-10T01:32:22;91597.38;;;9.55;100.00
38558;BME280;24333;42.626;23.308;2022-12-10T01:34:50;91585.78;;;9.73;100.00
38558;BME280;24333;42.626;23.308;2022-12-10T01:37:16;91579.19;;;9.85;100.00
38558;BME280;24333;42.626;23.308;2022-12-10T01:39:42;91609.59;;;10.16;100.00
38558;BME280;24333;42.626;23.308;2022-12-10T01:42:13;91594.41;;;10.15;100.00
38558;BME280;24333;42.626;23.308;2022-12-10T01:47:09;91569.97;;;10.48;100.00
38558;BME280;24333;42.626;23.308;2022-12-10T01:49:49;91582.81;;;10.69;100.00
38558;BME280;24333;42.626;23.308;2022-12-10T01:52:16;91551.63;;;10.70;100.00
38558;BME280;24333;42.626;23.308;2022-12-10T02:22:14;91613.53;;;10.91;100.00
38558;BME280;24333;42.626;23.308;2022-12-10T02:24:44;91598.38;;;10.83;100.00
38558;BME280;24333;42.626;23.308;2022-12-10T02:30:11;91585.88;;;10.93;100.00
38558;BME280;24333;42.626;23.308;2022-12-10T02:32:38;91574.63;;;10.80;100.00
38558;BME280;24333;42.626;23.308;2022-12-10T02:35:28;91569.56;;;10.71;100.00
38558;BME280;24333;42.626;23.308;2022-12-10T02:38:11;91569.94;;;10.62;100.00
38558;BME280;24333;42.626;23.308;2022-12-10T02:41:14;91578.13;;;10.59;100.00
38558;BME280;24333;42.626;23.308;2022-12-10T02:44:02;91551.25;;;10.43;100.00
38558;BME280;24333;42.626;23.308;2022-12-10T02:46:37;91570.34;;;10.57;100.00
38558;BME280;24333;42.626;23.308;2022-12-10T03:02:53;91579.66;;;10.27;100.00
38558;BME280;24333;42.626;23.308;2022-12-10T03:57:21;91569.09;;;9.89;100.00
38558;BME280;24333;42.626;23.308;2022-12-10T07:46:32;91572.81;;;9.34;100.00
38558;BME280;24333;42.626;23.308;2022-12-10T07:49:00;91576.75;;;9.40;100.00
38558;BME280;24333;42.626;23.308;2022-12-10T08:41:33;91523.97;;;10.75;100.00
38558;BME280;24333;42.626;23.308;2022-12-10T08:59:34;91529.78;;;10.95;100.00
38558;BME280;24333;42.626;23.308;2022-12-10T09:02:07;91507.19;;;10.88;100.00
38558;BME280;24333;42.626;23.308;2022-12-10T09:04:41;91483.84;;;10.83;100.00
38558;BME280;24333;42.626;23.308;2022-12-10T09:07:23;91486.53;;;10.90;100.00
38558;BME280;24333;42.626;23.308;2022-12-10T09:09:50;91482.59;;;10.95;100.00
38558;BME280;24333;42.626;23.308;2022-12-10T09:12:15;91480.66;;;11.06;100.00
38558;BME280;24333;42.626;23.308;2022-12-10T09:14:41;91464.25;;;11.10;100.00
38558;BME280;24333;42.626;23.308;2022-12-10T09:17:07;91485.22;;;11.27;100.00
38558;BME280;24333;42.626;23.308;2022-12-10T09:19:33;91461.81;;;11.30;100.00
38558;BME280;24333;42.626;23.308;2022-12-10T09:21:59;91486.31;;;11.41;100.00
38558;BME280;24333;42.626;23.308;2022-12-10T09:24:25;91487.53;;;11.36;100.00
38558;BME280;24333;42.626;23.308;2022-12-10T09:26:51;91498.47;;;11.29;100.00
38558;BME280;24333;42.626;23.308;2022-12-10T09:29:17;91490.69;;;11.24;100.00
38558;BME280;24333;42.626;23.308;2022-12-10T09:31:42;91500.09;;;11.19;100.00
38558;BME280;24333;42.626;23.308;2022-12-10T09:34:09;91478.25;;;11.12;100.00
38558;BME280;24333;42.626;23.308;2022-12-10T09:36:38;91467.81;;;10.96;100.00
38558;BME280;24333;42.626;23.308;2022-12-10T09:39:04;91479.06;;;11.16;100.00
38558;BME280;24333;42.626;23.308;2022-12-10T09:44:37;91471.53;;;11.35;100.00
38558;BME280;24333;42.626;23.308;2022-12-10T09:47:09;91452.44;;;11.31;100.00
38558;BME280;24333;42.626;23.308;2022-12-10T09:50:09;91471.38;;;11.64;100.00
38558;BME280;24333;42.626;23.308;2022-12-10T09:52:39;91433.75;;;11.26;100.00
38558;BME280;24333;42.626;23.308;2022-12-10T09:55:14;91465.56;;;11.62;100.00
38558;BME280;24333;42.626;23.308;2022-12-10T09:57:50;91460.78;;;11.73;100.00
38558;BME280;24333;42.626;23.308;2022-12-10T10:02:46;91465.59;;;11.54;100.00
38558;BME280;24333;42.626;23.308;2022-12-10T10:05:37;91431.38;;;11.39;100.00
38558;BME280;24333;42.626;23.308;2022-12-10T10:08:06;91461.97;;;11.76;100.00
38558;BME280;24333;42.626;23.308;2022-12-10T10:10:39;91452.28;;;11.64;100.00
38558;BME280;24333;42.626;23.308;2022-12-10T10:15:41;91457.50;;;11.96;100.00
38558;BME280;24333;42.626;23.308;2022-12-10T10:18:33;91461.34;;;12.10;100.00
38558;BME280;24333;42.626;23.308;2022-12-10T10:21:00;91453.59;;;12.01;100.00
38558;BME280;24333;42.626;23.308;2022-12-10T10:23:29;91455.94;;;11.95;100.00
38558;BME280;24333;42.626;23.308;2022-12-10T10:25:55;91456.66;;;12.10;100.00
38558;BME280;24333;42.626;23.308;2022-12-10T10:28:22;91436.44;;;11.97;100.00
38558;BME280;24333;42.626;23.308;2022-12-10T10:30:50;91413.75;;;12.07;100.00
38558;BME280;24333;42.626;23.308;2022-12-10T10:33:18;91445.06;;;12.41;100.00
38558;BME280;24333;42.626;23.308;2022-12-10T10:35:50;91402.09;;;12.45;100.00
38558;BME280;24333;42.626;23.308;2022-12-10T10:38:25;91411.09;;;12.77;100.00
38558;BME280;24333;42.626;23.308;2022-12-10T10:40:57;91382.56;;;13.12;100.00
38558;BME280;24333;42.626;23.308;2022-12-10T10:43:32;91419.38;;;13.35;100.00
38558;BME280;24333;42.626;23.308;2022-12-10T10:46:01;91364.22;;;13.09;100.00
38558;BME280;24333;42.626;23.308;2022-12-10T10:48:30;91419.63;;;13.48;100.00
38558;BME280;24333;42.626;23.308;2022-12-10T10:51:29;91388.78;;;13.44;100.00
38558;BME280;24333;42.626;23.308;2022-12-10T10:53:55;91392.31;;;13.72;100.00
38558;BME280;24333;42.626;23.308;2022-12-10T10:56:29;91382.53;;;13.71;100.00
38558;BME280;24333;42.626;23.308;2022-12-10T11:01:53;91388.81;;;13.40;100.00
38558;BME280;24333;42.626;23.308;2022-12-10T11:04:38;91375.81;;;13.48;100.00
38558;BME280;24333;42.626;23.308;2022-12-10T11:09:54;91355.78;;;12.96;100.00
38558;BME280;24333;42.626;23.308;2022-12-10T11:12:34;91362.03;;;13.24;100.00
38558;BME280;24333;42.626;23.308;2022-12-10T11:15:02;91372.72;;;13.15;100.00
38558;BME280;24333;42.626;23.308;2022-12-10T11:17:53;91365.47;;;13.01;100.00
38558;BME280;24333;42.626;23.308;2022-12-10T11:23:51;91328.31;;;13.04;100.00
38558;BME280;24333;42.626;23.308;2022-12-10T11:39:50;91353.28;;;13.37;100.00
38558;BME280;24333;42.626;23.308;2022-12-10T11:42:26;91346.66;;;13.34;100.00
38558;BME280;24333;42.626;23.308;2022-12-10T15:39:28;91116.69;;;11.04;100.00
38558;BME280;24333;42.626;23.308;2022-12-10T15:42:01;91084.13;;;10.89;100.00
38558;BME280;24333;42.626;23.308;2022-12-10T16:51:13;91048.63;;;10.51;100.00
38558;BME280;24333;42.626;23.308;2022-12-10T16:53:39;91039.72;;;10.39;100.00
38558;BME280;24333;42.626;23.308;2022-12-10T16:56:09;91030.00;;;10.38;100.00
38558;BME280;24333;42.626;23.308;2022-12-10T16:58:35;91047.91;;;10.47;100.00
38558;BME280;24333;42.626;23.308;2022-12-10T17:01:01;91037.00;;;10.47;100.00
38558;BME280;24333;42.626;23.308;2022-12-10T17:06:02;91000.16;;;10.27;100.00
38558;BME280;24333;42.626;23.308;2022-12-10T17:08:41;91026.94;;;10.40;100.00
38558;BME280;24333;42.626;23.308;2022-12-10T17:11:28;91021.50;;;10.33;100.00
38558;BME280;24333;42.626;23.308;2022-12-10T17:14:21;91024.97;;;10.37;100.00
38558;BME280;24333;42.626;23.308;2022-12-10T17:16:53;90975.81;;;10.09;100.00
38558;BME280;24333;42.626;23.308;2022-12-10T17:26:26;90986.94;;;10.22;100.00
38558;BME280;24333;42.626;23.308;2022-12-10T17:29:31;90973.44;;;10.11;100.00
38558;BME280;24333;42.626;23.308;2022-12-10T17:32:11;90969.53;;;10.12;100.00
38558;BME280;24333;42.626;23.308;2022-12-10T17:48:45;90963.72;;;10.10;100.00
38558;BME280;24333;42.626;23.308;2022-12-10T17:51:17;90959.06;;;10.07;100.00
38558;BME280;24333;42.626;23.308;2022-12-10T17:53:43;90929.66;;;9.91;100.00
38558;BME280;24333;42.626;23.308;2022-12-10T17:56:18;90941.75;;;9.87;100.00
38558;BME280;24333;42.626;23.308;2022-12-10T17:58:49;90940.63;;;9.80;100.00
38558;BME280;24333;42.626;23.308;2022-12-10T18:01:17;90954.97;;;9.84;100.00
38558;BME280;24333;42.626;23.308;2022-12-10T18:03:43;90951.84;;;9.86;100.00
38558;BME280;24333;42.626;23.308;2022-12-10T18:06:39;90959.16;;;9.96;100.00
38558;BME280;24333;42.626;23.308;2022-12-10T18:09:17;90930.44;;;9.88;100.00
38558;BME280;24333;42.626;23.308;2022-12-10T18:11:45;90946.31;;;9.97;100.00
38558;BME280;24333;42.626;23.308;2022-12-10T18:14:13;90948.28;;;9.96;100.00
38558;BME280;24333;42.626;23.308;2022-12-10T18:16:39;90945.13;;;9.98;100.00
38558;BME280;24333;42.626;23.308;2022-12-10T18:19:11;90943.16;;;10.02;100.00
38558;BME280;24333;42.626;23.308;2022-12-10T18:21:42;90924.94;;;9.95;100.00
38558;BME280;24333;42.626;23.308;2022-12-10T18:24:11;90933.88;;;9.96;100.00
38558;BME280;24333;42.626;23.308;2022-12-10T18:26:38;90913.72;;;9.86;100.00
38558;BME280;24333;42.626;23.308;2022-12-10T18:31:48;90909.06;;;9.87;100.00
38558;BME280;24333;42.626;23.308;2022-12-10T18:34:15;90909.78;;;9.94;100.00
38558;BME280;24333;42.626;23.308;2022-12-10T18:36:44;90915.56;;;10.00;100.00
38558;BME280;24333;42.626;23.308;2022-12-10T18:39:25;90915.16;;;10.02;100.00
38558;BME280;24333;42.626;23.308;2022-12-10T18:41:53;90890.75;;;9.91;100.00
38558;BME280;24333;42.626;23.308;2022-12-10T18:44:23;90870.88;;;9.94;100.00
38558;BME280;24333;42.626;23.308;2022-12-10T18:46:51;90875.53;;;9.97;100.00
38558;BME280;24333;42.626;23.308;2022-12-10T18:49:18;90874.13;;;9.81;100.00
38558;BME280;24333;42.626;23.308;2022-12-10T18:51:44;90879.16;;;9.83;100.00
38558;BME280;24333;42.626;23.308;2022-12-10T18:54:10;90860.59;;;9.74;100.00
38558;BME280;24333;42.626;23.308;2022-12-10T18:56:37;90872.56;;;9.80;100.00
38558;BME280;24333;42.626;23.308;2022-12-10T18:59:04;90858.69;;;9.67;100.00
38558;BME280;24333;42.626;23.308;2022-12-10T19:01:31;90859.81;;;9.70;100.00
38558;BME280;24333;42.626;23.308;2022-12-10T19:03:58;90863.69;;;9.73;100.00
38558;BME280;24333;42.626;23.308;2022-12-10T19:06:26;90868.34;;;9.72;100.00
38558;BME280;24333;42.626;23.308;2022-12-10T19:08:54;90859.78;;;9.74;100.00
38558;BME280;24333;42.626;23.308;2022-12-10T19:11:22;90846.56;;;9.76;100.00
38558;BME280;24333;42.626;23.308;2022-12-10T19:13:51;90834.16;;;9.71;100.00
38558;BME280;24333;42.626;23.308;2022-12-10T19:16:22;90836.91;;;9.67;100.00
38558;BME280;24333;42.626;23.308;2022-12-10T19:18:49;90832.22;;;9.68;100.00
38558;BME280;24333;42.626;23.308;2022-12-10T19:21:15;90837.69;;;9.68;100.00
38558;BME280;24333;42.626;23.308;2022-12-10T19:23:44;90832.72;;;9.59;100.00
38558;BME280;24333;42.626;23.308;2022-12-10T19:26:31;90845.03;;;9.71;100.00
38558;BME280;24333;42.626;23.308;2022-12-10T19:28:58;90829.16;;;9.66;100.00
38558;BME280;24333;42.626;23.308;2022-12-10T19:31:25;90828.81;;;9.60;100.00
38558;BME280;24333;42.626;23.308;2022-12-10T19:33:51;90821.13;;;9.51;100.00
38558;BME280;24333;42.626;23.308;2022-12-10T19:36:25;90824.56;;;9.55;100.00
38558;BME280;24333;42.626;23.308;2022-12-10T19:38:53;90830.00;;;9.59;100.00
38558;BME280;24333;42.626;23.308;2022-12-10T19:41:19;90816.06;;;9.50;100.00
38558;BME280;24333;42.626;23.308;2022-12-10T19:43:46;90818.31;;;9.59;100.00
38558;BME280;24333;42.626;23.308;2022-12-10T19:46:23;90823.69;;;9.66;100.00
38558;BME280;24333;42.626;23.308;2022-12-10T19:48:51;90805.09;;;9.61;100.00
38558;BME280;24333;42.626;23.308;2022-12-10T19:51:18;90791.53;;;9.57;100.00
38558;BME280;24333;42.626;23.308;2022-12-10T19:53:45;90787.19;;;9.63;100.00
38558;BME280;24333;42.626;23.308;2022-12-10T19:58:46;90769.34;;;9.59;100.00
38558;BME280;24333;42.626;23.308;2022-12-10T20:01:16;90763.91;;;9.59;100.00
38558;BME280;24333;42.626;23.308;2022-12-10T20:03:52;90769.28;;;9.66;100.00
38558;BME280;24333;42.626;23.308;2022-12-10T20:06:27;90755.00;;;9.54;100.00
38558;BME280;24333;42.626;23.308;2022-12-10T20:09:01;90746.13;;;9.50;100.00
38558;BME280;24333;42.626;23.308;2022-12-10T20:11:30;90753.44;;;9.57;100.00
38558;BME280;24333;42.626;23.308;2022-12-10T20:14:01;90737.47;;;9.59;100.00
38558;BME280;24333;42.626;23.308;2022-12-10T20:16:33;90734.41;;;9.57;100.00
38558;BME280;24333;42.626;23.308;2022-12-10T20:19:01;90733.16;;;9.62;100.00
38558;BME280;24333;42.626;23.308;2022-12-10T20:21:37;90720.00;;;9.57;100.00
38558;BME280;24333;42.626;23.308;2022-12-10T20:24:10;90720.34;;;9.62;100.00
38558;BME280;24333;42.626;23.308;2022-12-10T20:26:46;90717.19;;;9.64;100.00
38558;BME280;24333;42.626;23.308;2022-12-10T20:29:22;90726.09;;;9.68;100.00
38558;BME280;24333;42.626;23.308;2022-12-10T20:31:55;90697.88;;;9.54;100.00
38558;BME280;24333;42.626;23.308;2022-12-10T20:34:31;90702.94;;;9.56;100.00
38558;BME280;24333;42.626;23.308;2022-12-10T20:37:09;90698.59;;;9.59;100.00
38558;BME280;24333;42.626;23.308;2022-12-10T20:39:36;90704.88;;;9.52;100.00
38558;BME280;24333;42.626;23.308;2022-12-10T20:42:17;90685.47;;;9.50;100.00
38558;BME280;24333;42.626;23.308;2022-12-10T20:44:56;90675.09;;;9.41;100.00
38558;BME280;24333;42.626;23.308;2022-12-10T20:47:33;90645.28;;;9.30;100.00
38558;BME280;24333;42.626;23.308;2022-12-10T20:50:03;90650.72;;;9.30;100.00
38558;BME280;24333;42.626;23.308;2022-12-10T20:52:34;90643.81;;;9.22;100.00
38558;BME280;24333;42.626;23.308;2022-12-10T20:55:00;90638.03;;;9.16;100.00
38558;BME280;24333;42.626;23.308;2022-12-10T20:57:42;90615.22;;;9.06;100.00
38558;BME280;24333;42.626;23.308;2022-12-10T21:00:16;90627.63;;;9.11;100.00
38558;BME280;24333;42.626;23.308;2022-12-10T21:02:58;90631.16;;;9.08;100.00
38558;BME280;24333;42.626;23.308;2022-12-10T21:05:25;90609.88;;;8.99;100.00
38558;BME280;24333;42.626;23.308;2022-12-10T21:07:51;90638.94;;;9.06;100.00
38558;BME280;24333;42.626;23.308;2022-12-10T21:10:29;90614.53;;;8.99;100.00
38558;BME280;24333;42.626;23.308;2022-12-10T21:13:14;90614.88;;;9.01;100.00
38558;BME280;24333;42.626;23.308;2022-12-10T21:15:48;90601.09;;;8.84;100.00
38558;BME280;24333;42.626;23.308;2022-12-10T21:18:42;90592.19;;;8.80;100.00
38558;BME280;24333;42.626;23.308;2022-12-10T21:21:12;90585.97;;;8.79;100.00
38558;BME280;24333;42.626;23.308;2022-12-10T21:24:00;90605.34;;;8.85;100.00
38558;BME280;24333;42.626;23.308;2022-12-10T21:26:36;90594.66;;;8.63;100.00
38558;BME280;24333;42.626;23.308;2022-12-10T21:29:05;90568.28;;;8.60;100.00
38558;BME280;24333;42.626;23.308;2022-12-10T21:38:50;90565.09;;;8.73;100.00
38558;BME280;24333;42.626;23.308;2022-12-10T21:41:26;90564.59;;;8.81;100.00
38558;BME280;24333;42.626;23.308;2022-12-10T21:44:13;90528.22;;;8.72;100.00
38558;BME280;24333;42.626;23.308;2022-12-10T22:27:16;90482.63;;;8.52;100.00
38558;BME280;24333;42.626;23.308;2022-12-10T22:30:05;90482.69;;;8.45;100.00
